createdAt,value
2023-04-26T00:03:35.291Z,18.58
2023-04-26T00:13:36.681Z,18.58
2023-04-26T00:23:37.962Z,18.56
2023-04-26T00:33:39.220Z,18.54
2023-04-26T00:43:40.453Z,18.51
2023-04-26T00:53:41.716Z,18.49
2023-04-26T01:03:43.147Z,18.46
2023-04-26T01:13:44.596Z,18.38
2023-04-26T01:23:45.851Z,18.41
2023-04-26T01:33:47.096Z,18.31
2023-04-26T01:43:48.378Z,18.37
2023-04-26T01:53:49.648Z,18.47
2023-04-26T02:03:50.966Z,18.40
2023-04-26T02:13:52.237Z,18.41
2023-04-26T02:23:53.514Z,18.41
2023-04-26T02:33:54.779Z,18.35
2023-04-26T02:43:56.069Z,18.29
2023-04-26T02:53:57.369Z,18.25
2023-04-26T03:03:58.872Z,18.25
2023-04-26T03:14:00.593Z,18.18
2023-04-26T03:24:01.833Z,18.18
2023-04-26T03:34:06.082Z,18.22
2023-04-26T03:44:07.366Z,18.15
2023-04-26T03:54:08.712Z,18.17
2023-04-26T04:04:10.220Z,18.14
2023-04-26T04:14:11.645Z,18.19
2023-04-26T04:24:12.909Z,18.23
2023-04-26T04:34:14.276Z,18.37
2023-04-26T04:44:15.553Z,18.35
2023-04-26T04:54:16.928Z,18.34
2023-04-26T05:04:20.534Z,18.46
2023-04-26T05:14:21.915Z,18.55
2023-04-26T05:24:23.278Z,18.63
2023-04-26T05:34:24.624Z,18.63
2023-04-26T05:44:25.906Z,18.63
2023-04-26T05:54:27.209Z,18.67
2023-04-26T06:04:28.575Z,18.88
2023-04-26T06:14:30.936Z,18.78
2023-04-26T06:24:35.198Z,18.87
2023-04-26T06:34:36.477Z,18.81
2023-04-26T06:44:37.789Z,18.93
2023-04-26T06:54:53.669Z,18.88
2023-04-26T07:04:58.287Z,18.85
2023-04-26T07:14:59.857Z,18.88
2023-04-26T07:25:04.112Z,18.94
2023-04-26T07:35:11.641Z,19.02
2023-04-26T07:45:19.648Z,19.17
2023-04-26T07:55:25.661Z,19.10
2023-04-26T08:05:35.428Z,19.07
2023-04-26T08:15:40.737Z,19.12
2023-04-26T08:25:42.322Z,19.08
2023-04-26T08:46:07.911Z,19.08
2023-04-26T08:56:15.601Z,19.08
2023-04-26T09:06:20.819Z,19.05
2023-04-26T09:16:36.252Z,19.13
2023-04-26T09:26:42.869Z,19.11
2023-04-26T09:36:50.682Z,19.08
2023-04-26T09:46:52.382Z,19.14
2023-04-26T09:57:09.376Z,19.17
2023-04-26T10:07:14.601Z,19.12
2023-04-26T10:17:22.317Z,19.05
2023-04-26T10:27:30.857Z,19.02
2023-04-26T10:37:40.924Z,19.02
2023-04-26T10:47:48.701Z,19.02
2023-04-26T10:57:56.651Z,19.12
2023-04-26T11:07:58.379Z,19.14
2023-04-26T11:18:13.308Z,19.05
2023-04-26T11:28:20.661Z,19.10
2023-04-26T11:38:28.666Z,19.17
2023-04-26T11:48:36.420Z,19.20
2023-04-26T11:58:52.169Z,19.17
2023-04-26T12:08:54.024Z,19.18
2023-04-26T12:19:01.667Z,19.16
2023-04-26T12:29:08.900Z,19.13
2023-04-26T12:49:39.594Z,19.16
2023-04-26T12:59:41.787Z,19.14
2023-04-26T13:09:49.760Z,19.20
2023-04-26T13:19:58.709Z,19.16
2023-04-26T13:30:06.668Z,19.12
2023-04-26T13:40:14.824Z,19.16
2023-04-26T13:50:22.758Z,19.18
2023-04-26T14:00:31.736Z,19.14
2023-04-26T14:10:41.674Z,19.10
2023-04-26T14:20:49.858Z,19.13
2023-04-26T14:30:57.848Z,19.11
2023-04-26T14:41:05.759Z,19.13
2023-04-26T14:51:13.762Z,19.12
2023-04-26T15:01:21.794Z,19.10
2023-04-26T15:11:29.780Z,19.08
2023-04-26T15:21:41.269Z,19.07
2023-04-26T15:31:48.774Z,19.09
2023-04-26T15:41:53.909Z,19.09
2023-04-26T15:51:57.813Z,19.08
2023-04-26T16:12:28.416Z,19.09
2023-04-26T16:22:29.888Z,19.09
2023-04-26T16:32:40.482Z,19.06
2023-04-26T16:42:44.171Z,19.03
2023-04-26T16:52:51.754Z,19.02
2023-04-26T17:02:56.277Z,18.98
2023-04-26T17:23:16.835Z,18.92
2023-04-26T17:33:24.707Z,18.97
2023-04-26T17:43:35.752Z,18.89
2023-04-26T17:53:43.723Z,18.82
2023-04-26T18:03:51.926Z,18.81
2023-04-26T18:13:59.782Z,18.77
2023-04-26T18:24:07.759Z,18.75
2023-04-26T18:34:15.721Z,18.70
2023-04-26T18:44:23.817Z,18.68
2023-04-26T18:54:27.173Z,18.60
2023-04-26T19:04:30.539Z,18.58
2023-04-26T19:14:31.927Z,18.56
2023-04-26T19:24:33.188Z,18.59
2023-04-26T19:34:34.501Z,18.71
2023-04-26T19:44:35.746Z,18.67
2023-04-26T19:54:39.082Z,18.70
2023-04-26T20:04:42.777Z,18.66
2023-04-26T20:14:44.096Z,18.64
2023-04-26T20:24:45.443Z,18.63
2023-04-26T20:34:49.146Z,18.61
2023-04-26T20:44:50.498Z,18.61
2023-04-26T20:54:51.898Z,18.56
2023-04-26T21:04:53.466Z,18.57
2023-04-26T21:14:55.062Z,18.49
2023-04-26T21:24:56.434Z,18.53
2023-04-26T21:35:02.606Z,18.48
2023-04-26T21:45:03.898Z,18.50
2023-04-26T21:55:06.299Z,18.46
2023-04-26T22:05:07.720Z,18.51
2023-04-26T22:15:09.072Z,18.45
2023-04-26T22:25:10.359Z,18.48
2023-04-26T22:35:11.610Z,18.43
2023-04-26T22:45:12.862Z,18.41
2023-04-26T22:55:14.123Z,18.37
2023-04-26T23:05:15.499Z,18.31
2023-04-26T23:15:16.731Z,18.39
2023-04-26T23:25:18.006Z,18.30
2023-04-26T23:35:19.402Z,18.29
2023-04-26T23:45:20.697Z,18.31
2023-04-26T23:55:22.067Z,18.32
